Time;durP1;ratioP1;P1;durP2;ratioP2;P2;SDS_P1;SDS_P2;PMS_P1;PMS_P2;Temp;Humidity;BMP_temperature;BMP_pressure;BME280_temperature;BME280_humidity;BME280_pressure;Samples;Min_cycle;Max_cycle;Signal;HPM_P1;HPM_P2
2023/08/15 00:00:04;;;;;;;8.57;2.55;;;;;;;;;;4936688;28;99492;-83
2023/08/15 00:02:37;;;;;;;13.40;3.95;;;;;;;;;;4930984;28;99341;-84
2023/08/15 00:05:04;;;;;;;9.73;2.97;;;;;;;;;;4958298;28;98471;-84
2023/08/15 00:07:51;;;;;;;8.63;2.90;;;;;;;;;;4926832;28;99292;-83
2023/08/15 00:10:18;;;;;;;8.52;3.28;;;;;;;;;;4939126;28;99319;-83
2023/08/15 00:12:44;;;;;;;6.22;2.70;;;;;;;;;;4952636;28;98491;-83
2023/08/15 00:15:11;;;;;;;7.57;2.80;;;;;;;;;;4950584;28;98742;-83
2023/08/15 00:17:37;;;;;;;7.32;2.78;;;;;;;;;;4960791;28;98430;-83
2023/08/15 00:20:05;;;;;;;7.38;2.80;;;;;;;;;;4950170;28;98522;-83
2023/08/15 00:22:31;;;;;;;9.48;3.20;;;;;;;;;;4961509;28;99320;-83
2023/08/15 00:24:58;;;;;;;7.47;2.75;;;;;;;;;;4962551;28;99251;-83
2023/08/15 00:27:24;;;;;;;7.32;2.88;;;;;;;;;;4965793;28;99406;-83
2023/08/15 00:29:51;;;;;;;6.03;2.80;;;;;;;;;;4965481;28;98642;-83
2023/08/15 00:32:18;;;;;;;6.80;2.85;;;;;;;;;;4947192;28;98914;-83
2023/08/15 00:34:44;;;;;;;6.78;2.78;;;;;;;;;;4959138;28;99458;-83
2023/08/15 00:37:11;;;;;;;7.40;2.80;;;;;;;;;;4937532;28;99385;-83
2023/08/15 00:39:37;;;;;;;6.43;2.67;;;;;;;;;;4956741;28;98597;-83
2023/08/15 00:42:08;;;;;;;7.55;2.97;;;;;;;;;;4933932;28;99999;-83
2023/08/15 00:44:37;;;;;;;7.10;2.50;;;;;;;;;;4949557;28;98819;-82
2023/08/15 00:47:03;;;;;;;6.25;2.80;;;;;;;;;;4957561;28;98504;-83
2023/08/15 00:49:30;;;;;;;8.38;2.80;;;;;;;;;;4942935;28;100535;-83
2023/08/15 00:51:56;;;;;;;7.93;3.10;;;;;;;;;;4951504;28;98508;-84
2023/08/15 00:54:23;;;;;;;7.05;3.08;;;;;;;;;;4946733;28;99118;-83
2023/08/15 00:56:49;;;;;;;7.32;2.90;;;;;;;;;;4941145;28;98424;-83
2023/08/15 00:59:16;;;;;;;6.88;3.00;;;;;;;;;;4957402;28;98959;-82
2023/08/15 01:01:43;;;;;;;9.45;3.10;;;;;;;;;;4960453;28;99079;-83
2023/08/15 01:04:09;;;;;;;8.15;3.00;;;;;;;;;;4952279;28;98493;-83
2023/08/15 01:06:36;;;;;;;6.45;2.95;;;;;;;;;;4948155;28;101703;-83
2023/08/15 01:09:02;;;;;;;9.18;3.30;;;;;;;;;;4957103;28;99741;-83
2023/08/15 01:11:39;;;;;;;7.70;3.15;;;;;;;;;;4946533;28;98913;-83
2023/08/15 01:14:09;;;;;;;7.40;3.20;;;;;;;;;;4954061;28;99243;-83
2023/08/15 01:16:37;;;;;;;8.18;3.08;;;;;;;;;;4946320;28;100229;-83
2023/08/15 01:19:06;;;;;;;8.82;3.17;;;;;;;;;;4949587;28;98488;-83
2023/08/15 01:21:38;;;;;;;8.90;2.90;;;;;;;;;;4938609;28;99138;-82
2023/08/15 01:24:06;;;;;;;7.65;2.78;;;;;;;;;;4962712;28;100638;-82
2023/08/15 01:26:34;;;;;;;7.68;3.00;;;;;;;;;;4968274;28;98787;-83
2023/08/15 01:29:01;;;;;;;7.07;3.15;;;;;;;;;;4935323;28;102160;-81
2023/08/15 01:31:42;;;;;;;6.50;2.90;;;;;;;;;;4944460;28;97734;-81
2023/08/15 01:34:11;;;;;;;8.48;2.80;;;;;;;;;;4919930;28;101015;-80
2023/08/15 01:36:43;;;;;;;7.50;2.70;;;;;;;;;;4947587;28;102278;-80
2023/08/15 01:39:12;;;;;;;9.27;2.90;;;;;;;;;;4947837;28;99222;-80
2023/08/15 01:41:39;;;;;;;7.10;2.83;;;;;;;;;;4950546;28;99522;-81
2023/08/15 01:44:06;;;;;;;8.63;2.78;;;;;;;;;;4943137;28;102404;-81
2023/08/15 01:46:33;;;;;;;9.10;3.22;;;;;;;;;;4940992;28;98619;-81
2023/08/15 01:48:59;;;;;;;9.07;2.80;;;;;;;;;;4935373;28;101837;-83
2023/08/15 01:51:27;;;;;;;9.02;2.50;;;;;;;;;;4937891;28;98875;-84
2023/08/15 01:53:55;;;;;;;8.07;3.05;;;;;;;;;;4941610;28;100411;-82
2023/08/15 01:56:21;;;;;;;7.70;2.40;;;;;;;;;;4944298;28;99801;-82
2023/08/15 01:58:48;;;;;;;5.90;2.33;;;;;;;;;;4952462;28;98501;-82
2023/08/15 02:01:15;;;;;;;7.82;2.38;;;;;;;;;;4952929;28;99936;-82
2023/08/15 02:03:41;;;;;;;7.70;2.40;;;;;;;;;;4936768;28;99256;-82
2023/08/15 02:06:08;;;;;;;8.23;2.33;;;;;;;;;;4947947;28;98507;-82
2023/08/15 02:08:35;;;;;;;7.88;2.50;;;;;;;;;;4954391;28;100531;-82
2023/08/15 02:11:01;;;;;;;7.00;2.33;;;;;;;;;;4935454;28;98856;-81
2023/08/15 02:13:30;;;;;;;8.05;2.70;;;;;;;;;;4935752;28;99142;-82
2023/08/15 02:15:57;;;;;;;7.38;2.38;;;;;;;;;;4949832;28;99042;-82
2023/08/15 02:18:27;;;;;;;7.18;2.20;;;;;;;;;;4945237;28;98540;-82
2023/08/15 02:20:54;;;;;;;7.82;2.28;;;;;;;;;;4940493;28;98844;-82
2023/08/15 02:23:21;;;;;;;15.90;2.63;;;;;;;;;;4945565;28;98625;-82
2023/08/15 02:25:48;;;;;;;6.20;2.55;;;;;;;;;;4943012;28;98852;-82
2023/08/15 02:28:17;;;;;;;7.30;2.40;;;;;;;;;;4956642;28;101883;-82
2023/08/15 02:30:43;;;;;;;6.65;2.65;;;;;;;;;;4949805;28;98859;-82
2023/08/15 02:33:10;;;;;;;5.85;2.35;;;;;;;;;;4935131;28;100130;-82
2023/08/15 02:35:40;;;;;;;6.88;2.63;;;;;;;;;;4946773;28;99731;-81
2023/08/15 02:38:07;;;;;;;6.95;2.50;;;;;;;;;;4939990;28;99438;-82
2023/08/15 02:40:36;;;;;;;5.68;2.20;;;;;;;;;;4943229;28;99984;-82
2023/08/15 02:43:03;;;;;;;6.32;2.40;;;;;;;;;;4942384;28;99419;-81
2023/08/15 02:45:30;;;;;;;7.43;2.65;;;;;;;;;;4958202;28;97551;-82
2023/08/15 02:47:56;;;;;;;7.97;2.53;;;;;;;;;;4958790;28;97657;-81
2023/08/15 02:50:23;;;;;;;8.25;2.45;;;;;;;;;;4953729;28;98989;-82
2023/08/15 02:52:49;;;;;;;7.93;2.70;;;;;;;;;;4955291;28;99683;-82
2023/08/15 02:55:16;;;;;;;8.40;3.03;;;;;;;;;;4952046;28;101883;-81
2023/08/15 02:57:42;;;;;;;8.75;2.90;;;;;;;;;;4938796;28;98476;-81
2023/08/15 03:00:09;;;;;;;7.15;2.25;;;;;;;;;;4935845;28;101924;-81
2023/08/15 03:02:36;;;;;;;9.57;2.42;;;;;;;;;;4955533;28;98573;-82
2023/08/15 03:05:03;;;;;;;9.32;2.58;;;;;;;;;;4942878;28;98450;-82
2023/08/15 03:07:30;;;;;;;8.25;2.83;;;;;;;;;;4954282;28;98541;-82
2023/08/15 03:09:56;;;;;;;5.97;2.38;;;;;;;;;;4944049;28;100291;-81
2023/08/15 03:12:23;;;;;;;7.88;2.58;;;;;;;;;;4955917;28;98869;-81
2023/08/15 03:14:49;;;;;;;9.75;2.72;;;;;;;;;;4953076;28;100281;-84
2023/08/15 03:17:18;;;;;;;9.43;2.58;;;;;;;;;;4953409;28;99316;-82
2023/08/15 03:19:46;;;;;;;8.75;3.00;;;;;;;;;;4942240;28;101908;-81
2023/08/15 03:22:12;;;;;;;8.68;3.00;;;;;;;;;;4942568;28;98525;-82
2023/08/15 03:24:39;;;;;;;10.18;3.10;;;;;;;;;;4955625;28;98580;-83
2023/08/15 03:27:05;;;;;;;6.97;2.50;;;;;;;;;;4954442;28;98865;-83
2023/08/15 03:29:34;;;;;;;8.30;2.88;;;;;;;;;;4936004;28;100955;-81
2023/08/15 03:32:01;;;;;;;9.68;2.90;;;;;;;;;;4934271;28;98404;-84
2023/08/15 03:34:33;;;;;;;6.97;3.00;;;;;;;;;;4956336;28;100424;-79
2023/08/15 03:36:59;;;;;;;8.88;2.70;;;;;;;;;;4944222;28;98797;-81
2023/08/15 03:39:26;;;;;;;10.52;3.10;;;;;;;;;;4938677;28;101633;-83
2023/08/15 03:41:53;;;;;;;8.07;2.45;;;;;;;;;;4946557;28;100979;-81
2023/08/15 03:44:20;;;;;;;8.48;2.63;;;;;;;;;;4935576;28;98515;-82
2023/08/15 03:46:47;;;;;;;8.65;2.60;;;;;;;;;;4953455;28;100062;-82
2023/08/15 03:49:14;;;;;;;9.57;3.03;;;;;;;;;;4953189;28;101186;-82
2023/08/15 03:51:41;;;;;;;7.70;2.30;;;;;;;;;;4951247;28;98516;-83
2023/08/15 03:54:15;;;;;;;8.30;2.90;;;;;;;;;;4946812;28;100049;-83
2023/08/15 03:56:42;;;;;;;7.75;3.03;;;;;;;;;;4945247;28;100251;-82
2023/08/15 03:59:09;;;;;;;7.47;2.53;;;;;;;;;;4959336;28;100434;-84
2023/08/15 04:01:35;;;;;;;7.25;2.42;;;;;;;;;;4944883;28;99233;-84
2023/08/15 04:04:03;;;;;;;9.48;2.63;;;;;;;;;;4950179;28;98480;-85
2023/08/15 04:06:30;;;;;;;7.82;2.28;;;;;;;;;;4937350;28;101091;-83
2023/08/15 04:08:56;;;;;;;9.48;2.67;;;;;;;;;;4942452;28;99480;-83
2023/08/15 04:11:23;;;;;;;9.10;2.53;;;;;;;;;;4956763;28;98563;-83
2023/08/15 04:13:49;;;;;;;8.57;2.78;;;;;;;;;;4954942;28;99156;-84
2023/08/15 04:16:16;;;;;;;9.35;2.55;;;;;;;;;;4941828;28;99312;-83
2023/08/15 04:18:43;;;;;;;11.10;2.60;;;;;;;;;;4952795;28;101554;-83
2023/08/15 04:21:11;;;;;;;8.70;2.70;;;;;;;;;;4957390;28;101328;-83
2023/08/15 04:23:38;;;;;;;9.10;2.40;;;;;;;;;;4957945;28;97822;-83
2023/08/15 04:26:05;;;;;;;9.23;3.00;;;;;;;;;;4959184;28;98576;-83
2023/08/15 04:28:31;;;;;;;8.57;2.85;;;;;;;;;;4956522;28;102348;-83
2023/08/15 04:30:58;;;;;;;8.65;2.10;;;;;;;;;;4953208;28;99276;-82
2023/08/15 04:33:24;;;;;;;7.70;2.05;;;;;;;;;;4933278;28;100889;-81
2023/08/15 04:35:51;;;;;;;8.57;2.30;;;;;;;;;;4945103;28;98440;-81
2023/08/15 04:38:18;;;;;;;10.25;2.40;;;;;;;;;;4955903;28;100040;-82
2023/08/15 04:40:44;;;;;;;10.32;2.45;;;;;;;;;;4949115;28;101237;-80
2023/08/15 04:43:11;;;;;;;8.73;2.63;;;;;;;;;;4951908;28;98684;-80
2023/08/15 04:45:43;;;;;;;9.20;2.40;;;;;;;;;;4962264;28;98502;-81
2023/08/15 04:48:11;;;;;;;9.23;2.78;;;;;;;;;;4920092;28;98334;-81
2023/08/15 04:50:37;;;;;;;9.98;2.97;;;;;;;;;;4942749;28;98553;-82
2023/08/15 04:53:05;;;;;;;9.10;2.30;;;;;;;;;;4958993;28;99828;-81
2023/08/15 04:55:32;;;;;;;7.22;2.20;;;;;;;;;;4955747;28;102018;-82
2023/08/15 04:57:58;;;;;;;8.27;2.42;;;;;;;;;;4942899;28;98518;-83
2023/08/15 05:00:25;;;;;;;9.38;2.88;;;;;;;;;;4956056;28;100313;-84
2023/08/15 05:02:52;;;;;;;8.65;2.60;;;;;;;;;;4950947;28;98997;-82
2023/08/15 05:05:18;;;;;;;7.15;2.30;;;;;;;;;;4955366;28;100889;-82
2023/08/15 05:07:45;;;;;;;9.98;2.50;;;;;;;;;;4939594;28;101729;-82
2023/08/15 05:10:12;;;;;;;10.20;3.22;;;;;;;;;;4941576;28;98488;-82
2023/08/15 05:12:41;;;;;;;11.63;2.63;;;;;;;;;;4950456;28;100914;-83
2023/08/15 05:15:09;;;;;;;6.78;2.25;;;;;;;;;;4935313;28;99331;-82
2023/08/15 05:17:36;;;;;;;8.27;2.47;;;;;;;;;;4941847;28;98679;-83
2023/08/15 05:20:03;;;;;;;9.00;2.30;;;;;;;;;;4954337;28;99992;-82
2023/08/15 05:22:30;;;;;;;;;;;;;;;;;;4956735;28;99067;-82
2023/08/15 05:24:56;;;;;;;6.68;1.83;;;;;;;;;;4950806;28;123795;-82
2023/08/15 05:27:24;;;;;;;10.77;2.33;;;;;;;;;;4940849;28;101617;-82
2023/08/15 05:29:51;;;;;;;6.75;2.20;;;;;;;;;;4956154;28;98478;-82
2023/08/15 05:32:17;;;;;;;8.82;2.83;;;;;;;;;;4941593;28;98547;-83
2023/08/15 05:34:44;;;;;;;8.73;2.50;;;;;;;;;;4942960;28;99667;-82
2023/08/15 05:37:11;;;;;;;8.00;2.50;;;;;;;;;;4950483;28;98066;-83
2023/08/15 05:39:38;;;;;;;7.75;2.40;;;;;;;;;;4949191;28;100764;-83
2023/08/15 05:42:04;;;;;;;9.10;2.80;;;;;;;;;;4937012;28;100090;-84
2023/08/15 05:44:31;;;;;;;8.02;2.30;;;;;;;;;;4941382;28;99342;-82
2023/08/15 05:46:57;;;;;;;9.50;3.17;;;;;;;;;;4952300;28;98496;-83
2023/08/15 05:49:24;;;;;;;9.93;2.88;;;;;;;;;;4945544;28;99012;-83
2023/08/15 05:51:52;;;;;;;10.02;3.30;;;;;;;;;;4956733;28;98610;-84
2023/08/15 05:54:19;;;;;;;8.68;2.67;;;;;;;;;;4943731;28;98536;-82
2023/08/15 05:56:46;;;;;;;10.05;2.80;;;;;;;;;;4948940;28;98586;-82
2023/08/15 05:59:12;;;;;;;10.13;2.45;;;;;;;;;;4944275;28;98987;-82
2023/08/15 06:01:39;;;;;;;9.15;2.28;;;;;;;;;;4935424;28;97692;-82
2023/08/15 06:04:06;;;;;;;13.25;2.53;;;;;;;;;;4935065;28;99263;-82
2023/08/15 06:06:33;;;;;;;10.77;2.40;;;;;;;;;;4949628;28;99206;-81
2023/08/15 06:08:59;;;;;;;8.35;2.28;;;;;;;;;;4939610;28;99564;-82
2023/08/15 06:11:26;;;;;;;6.85;2.10;;;;;;;;;;4951426;28;100628;-81
2023/08/15 06:13:53;;;;;;;7.80;2.10;;;;;;;;;;4940999;28;99407;-82
2023/08/15 06:16:19;;;;;;;8.27;2.00;;;;;;;;;;4936315;28;99032;-82
2023/08/15 06:18:46;;;;;;;8.80;2.13;;;;;;;;;;4935962;28;98671;-81
2023/08/15 06:21:13;;;;;;;7.35;2.22;;;;;;;;;;4942010;28;101409;-81
2023/08/15 06:23:39;;;;;;;9.02;2.00;;;;;;;;;;4942117;28;99326;-83
2023/08/15 06:26:06;;;;;;;7.65;2.20;;;;;;;;;;4950906;28;98732;-83
2023/08/15 06:28:33;;;;;;;9.88;2.30;;;;;;;;;;4934252;28;98548;-83
2023/08/15 06:30:59;;;;;;;8.85;2.22;;;;;;;;;;4943549;28;98700;-82
2023/08/15 06:33:26;;;;;;;8.38;2.20;;;;;;;;;;4939399;28;99854;-83
2023/08/15 06:35:52;;;;;;;8.32;2.10;;;;;;;;;;4942900;28;98510;-81
2023/08/15 06:38:19;;;;;;;11.10;2.33;;;;;;;;;;4932635;28;100610;-81
2023/08/15 06:40:46;;;;;;;7.80;2.15;;;;;;;;;;4958343;28;98590;-82
2023/08/15 06:43:12;;;;;;;13.90;2.40;;;;;;;;;;4959366;28;98609;-82
2023/08/15 06:45:39;;;;;;;6.80;2.25;;;;;;;;;;4956673;28;101302;-82
2023/08/15 06:48:05;;;;;;;7.97;1.95;;;;;;;;;;4961024;28;98976;-82
2023/08/15 06:50:33;;;;;;;7.93;2.10;;;;;;;;;;4966098;28;100066;-82
2023/08/15 06:52:59;;;;;;;7.03;2.10;;;;;;;;;;4961959;28;99302;-82
2023/08/15 06:55:26;;;;;;;8.00;2.03;;;;;;;;;;4918789;28;100678;-82
2023/08/15 06:57:53;;;;;;;7.32;1.90;;;;;;;;;;4930938;28;99340;-82
2023/08/15 07:00:19;;;;;;;8.85;2.03;;;;;;;;;;4947692;28;99250;-82
2023/08/15 07:02:46;;;;;;;7.65;2.20;;;;;;;;;;4947337;28;99148;-83
2023/08/15 07:05:13;;;;;;;9.68;2.60;;;;;;;;;;4942583;28;100266;-82
2023/08/15 07:07:40;;;;;;;;;;;;;;;;;;4956263;28;99140;-83
2023/08/15 07:10:07;;;;;;;8.45;2.50;;;;;;;;;;4941457;28;107680;-83
2023/08/15 07:12:33;;;;;;;7.57;2.10;;;;;;;;;;4946572;28;99356;-81
2023/08/15 07:15:00;;;;;;;9.18;2.20;;;;;;;;;;4934138;28;97990;-81
2023/08/15 07:17:27;;;;;;;9.93;1.98;;;;;;;;;;4944341;28;98960;-81
2023/08/15 07:19:53;;;;;;;8.68;2.55;;;;;;;;;;4939005;28;99149;-81
2023/08/15 07:22:20;;;;;;;8.63;2.10;;;;;;;;;;4935573;28;99314;-83
2023/08/15 07:24:47;;;;;;;8.48;2.15;;;;;;;;;;4931546;28;100694;-83
2023/08/15 07:27:14;;;;;;;9.02;2.75;;;;;;;;;;4948118;28;100287;-81
2023/08/15 07:29:40;;;;;;;10.45;3.13;;;;;;;;;;4934773;28;99056;-86
2023/08/15 07:32:08;;;;;;;10.93;3.10;;;;;;;;;;4934933;28;98957;-83
2023/08/15 07:34:37;;;;;;;12.82;3.33;;;;;;;;;;4930817;28;99120;-85
2023/08/15 07:37:04;;;;;;;13.32;3.30;;;;;;;;;;4939399;28;98759;-83
2023/08/15 07:39:31;;;;;;;10.50;3.15;;;;;;;;;;4947851;28;99776;-83
2023/08/15 07:41:57;;;;;;;10.13;2.67;;;;;;;;;;4949643;28;99499;-83
2023/08/15 07:44:25;;;;;;;14.35;3.42;;;;;;;;;;4949043;28;98957;-82
2023/08/15 07:46:52;;;;;;;13.50;3.10;;;;;;;;;;4949515;28;99926;-85
2023/08/15 07:49:19;;;;;;;10.40;2.50;;;;;;;;;;4939013;28;98643;-81
2023/08/15 07:51:45;;;;;;;8.35;2.30;;;;;;;;;;4953112;28;99032;-82
2023/08/15 07:54:12;;;;;;;9.15;2.80;;;;;;;;;;4949222;28;100338;-83
2023/08/15 07:56:39;;;;;;;12.57;3.42;;;;;;;;;;4936300;28;98848;-83
2023/08/15 07:59:06;;;;;;;11.00;2.72;;;;;;;;;;4947991;28;99353;-84
2023/08/15 08:01:32;;;;;;;11.45;3.33;;;;;;;;;;4938049;28;98903;-85
2023/08/15 08:04:00;;;;;;;11.30;2.80;;;;;;;;;;4949178;28;98730;-83
2023/08/15 08:06:27;;;;;;;10.73;3.08;;;;;;;;;;4946097;28;99128;-84
2023/08/15 08:09:06;;;;;;;10.85;3.58;;;;;;;;;;4947965;28;98980;-85
2023/08/15 08:11:33;;;;;;;10.23;3.28;;;;;;;;;;4944318;28;99509;-84
2023/08/15 08:13:59;;;;;;;13.70;4.10;;;;;;;;;;4938035;28;99230;-86
2023/08/15 08:16:26;;;;;;;14.35;4.70;;;;;;;;;;4942196;28;98716;-85
2023/08/15 08:18:53;;;;;;;10.43;4.18;;;;;;;;;;4940319;28;99365;-86
2023/08/15 08:21:20;;;;;;;11.68;3.47;;;;;;;;;;4938410;28;98597;-85
2023/08/15 08:23:47;;;;;;;13.10;3.88;;;;;;;;;;4936996;28;99993;-87
2023/08/15 08:26:14;;;;;;;10.50;4.20;;;;;;;;;;4941155;28;99767;-85
2023/08/15 08:28:40;;;;;;;;;;;;;;;;;;4942632;28;97822;-85
2023/08/15 08:31:07;;;;;;;11.00;4.03;;;;;;;;;;4944266;28;100170;-85
2023/08/15 08:33:34;;;;;;;11.52;4.18;;;;;;;;;;4933742;28;100491;-85
2023/08/15 08:36:00;;;;;;;12.68;3.88;;;;;;;;;;4944653;28;99256;-85
2023/08/15 08:38:27;;;;;;;11.20;4.07;;;;;;;;;;4947176;28;99130;-84
2023/08/15 08:40:55;;;;;;;10.30;3.15;;;;;;;;;;4952186;28;98623;-84
2023/08/15 08:43:22;;;;;;;10.55;3.58;;;;;;;;;;4950623;28;98995;-84
2023/08/15 08:45:50;;;;;;;9.55;3.20;;;;;;;;;;4947244;28;98985;-85
2023/08/15 08:48:18;;;;;;;11.15;3.33;;;;;;;;;;4960060;28;98542;-85
2023/08/15 08:50:45;;;;;;;10.82;3.67;;;;;;;;;;4956207;28;100327;-84
2023/08/15 08:53:11;;;;;;;10.38;3.47;;;;;;;;;;4953713;28;98443;-86
2023/08/15 08:55:38;;;;;;;11.27;3.28;;;;;;;;;;4947018;28;98545;-85
2023/08/15 08:58:05;;;;;;;10.77;3.47;;;;;;;;;;4945077;28;100685;-84
2023/08/15 09:00:32;;;;;;;10.93;3.95;;;;;;;;;;4923425;28;99586;-84
2023/08/15 09:02:59;;;;;;;8.45;3.20;;;;;;;;;;4938927;28;99673;-84
2023/08/15 09:05:26;;;;;;;10.43;4.13;;;;;;;;;;4944352;28;99271;-83
2023/08/15 09:07:53;;;;;;;7.45;2.85;;;;;;;;;;4944283;28;99046;-85
2023/08/15 09:10:23;;;;;;;10.02;3.72;;;;;;;;;;4941109;28;99629;-85
2023/08/15 09:12:49;;;;;;;10.30;4.07;;;;;;;;;;4914995;28;99286;-85
2023/08/15 09:15:16;;;;;;;10.05;5.28;;;;;;;;;;4940283;28;98662;-86
2023/08/15 09:17:43;;;;;;;13.35;5.90;;;;;;;;;;4947084;28;98803;-86
2023/08/15 09:20:10;;;;;;;;;;;;;;;;;;4944505;28;99404;-83
2023/08/15 09:22:38;;;;;;;10.80;6.25;;;;;;;;;;4944237;28;98915;-83
2023/08/15 09:25:05;;;;;;;13.60;7.32;;;;;;;;;;4948538;28;100054;-84
2023/08/15 09:27:31;;;;;;;14.30;7.35;;;;;;;;;;4948171;28;98574;-79
2023/08/15 09:30:06;;;;;;;12.93;7.55;;;;;;;;;;4937648;28;99027;-82
2023/08/15 09:32:32;;;;;;;13.18;7.70;;;;;;;;;;4939115;28;99296;-83
2023/08/15 09:34:59;;;;;;;14.80;8.23;;;;;;;;;;4946159;28;98753;-83
2023/08/15 09:37:25;;;;;;;16.58;7.88;;;;;;;;;;4938947;28;98601;-83
2023/08/15 09:39:52;;;;;;;12.48;7.75;;;;;;;;;;4944751;28;100697;-83
2023/08/15 09:42:19;;;;;;;10.95;7.07;;;;;;;;;;4943381;28;97821;-86
2023/08/15 09:44:45;;;;;;;11.55;7.30;;;;;;;;;;4947283;28;99307;-83
2023/08/15 09:47:12;;;;;;;13.32;7.55;;;;;;;;;;4941722;28;99026;-83
2023/08/15 09:49:39;;;;;;;13.30;7.35;;;;;;;;;;4959885;28;99366;-88
2023/08/15 09:52:07;;;;;;;12.82;7.97;;;;;;;;;;4939333;28;99287;-80
2023/08/15 09:54:34;;;;;;;11.40;6.75;;;;;;;;;;4944776;28;98597;-82
2023/08/15 09:57:01;;;;;;;14.00;7.50;;;;;;;;;;4934694;28;101149;-79
2023/08/15 09:59:28;;;;;;;11.50;7.22;;;;;;;;;;4942885;28;99387;-80
2023/08/15 10:01:55;;;;;;;13.93;6.30;;;;;;;;;;4937454;28;98604;-83
2023/08/15 10:04:22;;;;;;;10.88;6.25;;;;;;;;;;4948969;28;98936;-80
2023/08/15 10:06:51;;;;;;;11.30;6.10;;;;;;;;;;4940306;28;97914;-82
2023/08/15 10:09:18;;;;;;;9.80;5.82;;;;;;;;;;4918291;28;101293;-81
2023/08/15 10:11:45;;;;;;;9.50;5.22;;;;;;;;;;4940018;28;98459;-81
2023/08/15 10:14:14;;;;;;;10.23;5.40;;;;;;;;;;4934737;28;99312;-81
2023/08/15 10:16:40;;;;;;;11.68;5.28;;;;;;;;;;4946709;28;100777;-82
2023/08/15 10:19:09;;;;;;;9.93;5.13;;;;;;;;;;4934870;28;99276;-81
2023/08/15 10:21:47;;;;;;;12.27;4.93;;;;;;;;;;4946571;28;98554;-83
2023/08/15 10:24:14;;;;;;;10.70;5.45;;;;;;;;;;4943743;28;98873;-83
2023/08/15 10:26:45;;;;;;;9.75;4.47;;;;;;;;;;4945886;28;98686;-84
2023/08/15 10:29:12;;;;;;;10.20;4.45;;;;;;;;;;4933177;28;101811;-84
2023/08/15 10:31:39;;;;;;;11.52;3.95;;;;;;;;;;4926568;28;101114;-85
2023/08/15 10:34:10;;;;;;;9.43;4.45;;;;;;;;;;4941287;28;99224;-83
2023/08/15 10:36:39;;;;;;;8.93;4.20;;;;;;;;;;4944166;28;98853;-84
2023/08/15 10:39:06;;;;;;;11.70;4.10;;;;;;;;;;4924860;28;100014;-83
2023/08/15 10:41:36;;;;;;;13.65;4.28;;;;;;;;;;4934214;28;98870;-83
2023/08/15 10:44:07;;;;;;;9.07;3.85;;;;;;;;;;4943250;28;99298;-84
2023/08/15 10:46:35;;;;;;;9.07;3.88;;;;;;;;;;4941419;28;99094;-82
2023/08/15 10:49:10;;;;;;;12.40;4.35;;;;;;;;;;4946028;28;99367;-82
2023/08/15 10:51:38;;;;;;;9.95;3.92;;;;;;;;;;4927434;28;99163;-85
2023/08/15 10:54:06;;;;;;;11.98;4.22;;;;;;;;;;4934515;28;98626;-82
2023/08/15 10:56:34;;;;;;;12.05;4.10;;;;;;;;;;4944462;28;99447;-82
2023/08/15 10:59:04;;;;;;;8.60;3.65;;;;;;;;;;4942343;28;99279;-83
2023/08/15 11:01:31;;;;;;;15.20;4.75;;;;;;;;;;4933502;28;98757;-80
2023/08/15 11:03:58;;;;;;;12.23;4.40;;;;;;;;;;4945090;28;99198;-82
2023/08/15 11:06:24;;;;;;;10.77;3.92;;;;;;;;;;4936614;28;99240;-80
2023/08/15 11:08:52;;;;;;;11.15;4.22;;;;;;;;;;4933346;28;100961;-80
2023/08/15 11:11:19;;;;;;;11.75;4.10;;;;;;;;;;4939272;28;99151;-82
2023/08/15 11:13:46;;;;;;;9.43;4.10;;;;;;;;;;4948883;28;98976;-80
2023/08/15 11:16:13;;;;;;;12.80;3.85;;;;;;;;;;4943922;28;98889;-79
2023/08/15 11:18:40;;;;;;;10.70;3.85;;;;;;;;;;4939453;28;99194;-83
2023/08/15 11:21:08;;;;;;;12.02;4.00;;;;;;;;;;4946041;28;97878;-78
2023/08/15 11:23:35;;;;;;;11.23;3.63;;;;;;;;;;4946260;28;99063;-80
2023/08/15 11:26:03;;;;;;;12.43;3.80;;;;;;;;;;4944035;28;99220;-79
2023/08/15 11:28:31;;;;;;;9.57;3.28;;;;;;;;;;4923316;28;99327;-80
2023/08/15 11:30:58;;;;;;;12.13;4.13;;;;;;;;;;4929040;28;99760;-78
2023/08/15 11:33:34;;;;;;;8.93;3.50;;;;;;;;;;4939656;28;98866;-82
2023/08/15 11:36:01;;;;;;;10.40;3.53;;;;;;;;;;4939746;28;98666;-82
2023/08/15 11:38:28;;;;;;;;;;;;;;;;;;4940656;28;100556;-82
2023/08/15 11:40:55;;;;;;;11.10;3.80;;;;;;;;;;4942613;28;108555;-80
2023/08/15 11:43:22;;;;;;;;;;;;;;;;;;4943901;28;98904;-82
2023/08/15 11:45:48;;;;;;;12.13;3.95;;;;;;;;;;4943932;28;98445;-81
2023/08/15 11:48:15;;;;;;;10.10;3.60;;;;;;;;;;4924614;28;99146;-82
2023/08/15 11:50:42;;;;;;;9.50;3.53;;;;;;;;;;4943226;28;98886;-81
2023/08/15 11:53:11;;;;;;;11.25;3.80;;;;;;;;;;4949316;28;101018;-83
2023/08/15 11:55:39;;;;;;;11.65;4.20;;;;;;;;;;4939529;28;99549;-83
2023/08/15 11:58:26;;;;;;;10.93;3.80;;;;;;;;;;4939692;28;99350;-84
2023/08/15 12:00:56;;;;;;;10.73;3.55;;;;;;;;;;4918847;28;98893;-84
2023/08/15 12:03:26;;;;;;;12.48;3.90;;;;;;;;;;4942740;28;98845;-79
2023/08/15 12:05:54;;;;;;;9.80;3.72;;;;;;;;;;4949315;28;99597;-81
2023/08/15 12:08:23;;;;;;;10.35;3.40;;;;;;;;;;4941951;28;99026;-83
2023/08/15 12:10:52;;;;;;;11.10;3.70;;;;;;;;;;4928542;28;98854;-81
2023/08/15 12:13:27;;;;;;;9.80;3.10;;;;;;;;;;4929418;28;98557;-80
2023/08/15 12:15:54;;;;;;;11.23;3.15;;;;;;;;;;4935274;28;98967;-79
2023/08/15 12:18:21;;;;;;;8.75;3.50;;;;;;;;;;4939839;28;100382;-83
2023/08/15 12:20:48;;;;;;;10.65;3.10;;;;;;;;;;4932997;28;98987;-85
2023/08/15 12:23:14;;;;;;;11.45;3.47;;;;;;;;;;4930986;28;102151;-83
2023/08/15 12:25:53;;;;;;;10.00;3.58;;;;;;;;;;4947233;28;99119;-82
2023/08/15 12:28:20;;;;;;;10.15;3.22;;;;;;;;;;4929959;28;98638;-84
2023/08/15 12:30:47;;;;;;;7.57;2.70;;;;;;;;;;4950305;28;100359;-83
2023/08/15 12:33:13;;;;;;;7.13;2.65;;;;;;;;;;4948788;28;99837;-82
2023/08/15 12:35:56;;;;;;;7.25;2.97;;;;;;;;;;4952015;28;98605;-81
2023/08/15 12:38:23;;;;;;;6.80;2.70;;;;;;;;;;4949427;28;99657;-83
2023/08/15 12:40:50;;;;;;;6.43;2.70;;;;;;;;;;4944967;28;98947;-82
2023/08/15 12:43:16;;;;;;;7.53;2.30;;;;;;;;;;4929861;28;102086;-81
2023/08/15 12:45:43;;;;;;;7.50;2.42;;;;;;;;;;4947290;28;99247;-83
2023/08/15 12:48:10;;;;;;;6.70;2.20;;;;;;;;;;4956132;28;99273;-82
2023/08/15 12:50:37;;;;;;;8.30;2.40;;;;;;;;;;4956574;28;98842;-82
2023/08/15 12:53:03;;;;;;;5.80;2.10;;;;;;;;;;4959056;28;99704;-84
2023/08/15 12:55:30;;;;;;;6.82;2.20;;;;;;;;;;4956674;28;98663;-83
2023/08/15 12:57:56;;;;;;;6.57;2.20;;;;;;;;;;4951292;28;98525;-83
2023/08/15 13:00:23;;;;;;;6.43;1.95;;;;;;;;;;4954888;28;97718;-83
2023/08/15 13:02:50;;;;;;;4.93;1.90;;;;;;;;;;4944619;28;98686;-85
2023/08/15 13:05:17;;;;;;;6.18;1.90;;;;;;;;;;4956552;28;98497;-81
2023/08/15 13:07:43;;;;;;;6.50;1.70;;;;;;;;;;4952954;28;99233;-85
2023/08/15 13:10:10;;;;;;;5.30;1.90;;;;;;;;;;4951463;28;100349;-84
2023/08/15 13:12:37;;;;;;;5.22;1.50;;;;;;;;;;4932781;28;102159;-86
2023/08/15 13:15:06;;;;;;;4.63;1.85;;;;;;;;;;4933269;28;99207;-83
2023/08/15 13:17:32;;;;;;;5.22;1.75;;;;;;;;;;4948405;28;98583;-83
2023/08/15 13:19:59;;;;;;;4.60;1.70;;;;;;;;;;4951290;28;99362;-84
2023/08/15 13:22:25;;;;;;;5.45;1.80;;;;;;;;;;4933082;28;98880;-87
2023/08/15 13:24:52;;;;;;;4.57;1.48;;;;;;;;;;4926895;28;99003;-87
2023/08/15 13:27:19;;;;;;;4.43;1.60;;;;;;;;;;4930580;28;98961;-85
2023/08/15 13:29:45;;;;;;;5.05;1.50;;;;;;;;;;4928686;28;98996;-86
2023/08/15 13:32:12;;;;;;;3.55;1.45;;;;;;;;;;4928037;28;100650;-86
2023/08/15 13:34:39;;;;;;;4.53;1.60;;;;;;;;;;4937674;28;100348;-86
2023/08/15 13:37:07;;;;;;;3.40;1.60;;;;;;;;;;4930642;28;99979;-85
2023/08/15 13:39:33;;;;;;;4.47;1.73;;;;;;;;;;4932274;28;98644;-86
2023/08/15 13:42:00;;;;;;;5.90;1.58;;;;;;;;;;4935254;28;98622;-85
2023/08/15 13:44:27;;;;;;;3.30;1.50;;;;;;;;;;4933510;28;99300;-85
2023/08/15 13:46:54;;;;;;;2.67;1.50;;;;;;;;;;4928909;28;99568;-84
2023/08/15 13:49:22;;;;;;;3.35;1.40;;;;;;;;;;4944628;28;99297;-85
2023/08/15 13:51:48;;;;;;;2.65;1.35;;;;;;;;;;4932438;28;99183;-85
2023/08/15 13:54:15;;;;;;;2.70;1.33;;;;;;;;;;4929630;28;99151;-85
2023/08/15 13:56:43;;;;;;;2.53;1.30;;;;;;;;;;4934092;28;99903;-85
2023/08/15 13:59:09;;;;;;;2.67;1.50;;;;;;;;;;4936538;28;99263;-85
2023/08/15 14:01:36;;;;;;;3.65;1.30;;;;;;;;;;4928613;28;99182;-86
2023/08/15 14:04:02;;;;;;;2.97;1.40;;;;;;;;;;4930627;28;99700;-86
2023/08/15 14:06:29;;;;;;;3.67;1.50;;;;;;;;;;4927599;28;98622;-85
2023/08/15 14:08:56;;;;;;;3.30;1.55;;;;;;;;;;4929046;28;99382;-89
2023/08/15 14:11:22;;;;;;;3.83;1.75;;;;;;;;;;4926764;28;100022;-86
2023/08/15 14:13:49;;;;;;;3.40;1.55;;;;;;;;;;4936284;28;98068;-86
2023/08/15 14:16:15;;;;;;;3.95;1.75;;;;;;;;;;4930735;28;98530;-89
2023/08/15 14:18:42;;;;;;;2.78;1.40;;;;;;;;;;4928341;28;99435;-87
2023/08/15 14:21:10;;;;;;;3.17;1.60;;;;;;;;;;4925245;28;100838;-86
2023/08/15 14:23:43;;;;;;;5.05;1.70;;;;;;;;;;4940753;28;99480;-86
2023/08/15 14:26:10;;;;;;;4.57;1.52;;;;;;;;;;4931116;28;99215;-87
2023/08/15 14:28:37;;;;;;;3.10;1.40;;;;;;;;;;4921853;28;99076;-87
2023/08/15 14:31:04;;;;;;;2.40;1.35;;;;;;;;;;4931731;28;98441;-87
2023/08/15 14:33:31;;;;;;;;;;;;;;;;;;4927937;28;98601;-85
2023/08/15 14:35:58;;;;;;;3.63;1.60;;;;;;;;;;4932460;28;98651;-85
2023/08/15 14:38:27;;;;;;;2.40;1.48;;;;;;;;;;4934735;28;98357;-87